Karla A — TCCR8 — position and weather

sailwx.info

Track history (hours):
 
Tides and Currents Weather Stations Pressure Air Temp Water Temp Dewpoint Dewpoint Depression Visibility Wind Speed Wind Dir Waves Ship Positions

Karla A

Last reported at 2017-Mar-24 16:23 UTC. Time now 2017-Mar-28 06:06 UTC.
Position N 32°09' E 030°53'.

Length 155 m; draft 8.3 m.

Type: Ship (hazmat cat A). MMSI: 271000744.

Date/timePositionNaut miles runAvg speedWind from/ knotsBaromVisibWave heightAir tempDewpointWater temp
2017-Mar-24 16:23N 32°09' E 030°53'2211.2
2017-Mar-24 14:24N 32°25' E 031°11'9912.0
2017-Mar-24 06:08N 33°37' E 032°33'711.3
2017-Mar-24 05:33N 33°40' E 032°40'2211.2
2017-Mar-24 03:33N 33°56' E 032°60'1111.4
2017-Mar-24 02:33N 34°04' E 033°09'1211.6
2017-Mar-24 01:33N 34°12' E 033°19'1211.6
2017-Mar-24 00:33N 34°21' E 033°29'1211.6
2017-Mar-23 23:33N 34°29' E 033°39'1211.5
2017-Mar-23 22:33N 34°38' E 033°48'  
2017-Mar-20 10:10N 34°22' E 033°10'811.9
2017-Mar-20 09:32N 34°24' E 033°01'1211.8
2017-Mar-20 08:33N 34°27' E 032°47'37811.6
2017-Mar-19 00:06N 37°23' E 025°55'4 7.5
2017-Mar-18 23:33N 37°27' E 025°53'  
Track history (hours):
 
Tides and Currents Weather Stations Pressure Air Temp Water Temp Dewpoint Dewpoint Depression Visibility Wind Speed Wind Dir Waves Ship Positions

Karla A

Last reported at 2017-Mar-24 16:23 UTC. Time now 2017-Mar-28 06:06 UTC.
Position N 32°09' E 030°53'.

Length 155 m; draft 8.3 m.

Type: Ship (hazmat cat A). MMSI: 271000744.

Date/timePositionNaut miles runAvg speedWind from/ knotsBaromVisibWave heightAir tempDewpointWater temp
2017-Mar-24 16:23N 32°09' E 030°53'2211.2
2017-Mar-24 14:24N 32°25' E 031°11'9912.0
2017-Mar-24 06:08N 33°37' E 032°33'711.3
2017-Mar-24 05:33N 33°40' E 032°40'2211.2
2017-Mar-24 03:33N 33°56' E 032°60'1111.4
2017-Mar-24 02:33N 34°04' E 033°09'1211.6
2017-Mar-24 01:33N 34°12' E 033°19'1211.6
2017-Mar-24 00:33N 34°21' E 033°29'1211.6
2017-Mar-23 23:33N 34°29' E 033°39'1211.5
2017-Mar-23 22:33N 34°38' E 033°48'  
2017-Mar-20 10:10N 34°22' E 033°10'811.9
2017-Mar-20 09:32N 34°24' E 033°01'1211.8
2017-Mar-20 08:33N 34°27' E 032°47'37811.6
2017-Mar-19 00:06N 37°23' E 025°55'4 7.5
2017-Mar-18 23:33N 37°27' E 025°53'  

Dump ship's entire track history